Time;durP1;ratioP1;P1;durP2;ratioP2;P2;SDS_P1;SDS_P2;PMS_P1;PMS_P2;Temp;Humidity;BMP_temperature;BMP_pressure;BME280_temperature;BME280_humidity;BME280_pressure;Samples;Min_cycle;Max_cycle;Signal;HPM_P1;HPM_P2
2023/09/18 00:01:10;;;;;;;24.80;21.13;;;17.40;99.90;;;;;;5018367;28;20474;-79
2023/09/18 00:03:36;;;;;;;24.33;20.48;;;17.40;99.90;;;;;;4985164;28;20045;-79
2023/09/18 00:06:05;;;;;;;26.13;20.27;;;17.40;99.90;;;;;;5000672;28;20038;-78
2023/09/18 00:08:31;;;;;;;24.58;20.75;;;17.40;99.90;;;;;;4996539;28;20042;-79
2023/09/18 00:10:57;;;;;;;26.80;20.17;;;17.40;99.90;;;;;;5011507;28;20050;-79
2023/09/18 00:13:23;;;;;;;24.67;19.70;;;17.40;99.90;;;;;;4984520;28;20060;-79
2023/09/18 00:15:52;;;;;;;23.25;20.23;;;17.50;99.90;;;;;;5001423;28;20088;-78
2023/09/18 00:18:18;;;;;;;24.83;19.45;;;17.40;99.90;;;;;;4983427;28;20092;-79
2023/09/18 00:20:49;;;;;;;27.20;20.15;;;17.40;99.90;;;;;;4981924;28;20038;-78
2023/09/18 00:23:15;;;;;;;23.55;19.60;;;17.40;99.90;;;;;;4982450;28;20045;-78
2023/09/18 00:25:42;;;;;;;27.90;21.08;;;17.40;99.90;;;;;;4994966;28;20038;-79
2023/09/18 00:28:11;;;;;;;24.90;20.83;;;17.40;99.90;;;;;;4994906;28;20200;-78
2023/09/18 00:30:42;;;;;;;24.45;18.90;;;17.40;99.90;;;;;;4984472;28;20069;-80
2023/09/18 00:33:08;;;;;;;24.98;20.23;;;17.50;99.90;;;;;;4982918;28;20041;-78
2023/09/18 00:35:35;;;;;;;26.52;19.83;;;17.40;99.90;;;;;;4999657;28;20069;-78
2023/09/18 00:38:03;;;;;;;23.65;19.45;;;17.50;99.90;;;;;;4984209;28;20057;-79
2023/09/18 00:40:29;;;;;;;27.65;19.50;;;17.50;99.90;;;;;;4983413;28;20053;-78
2023/09/18 00:42:56;;;;;;;23.27;18.70;;;17.50;99.90;;;;;;4990781;28;20069;-78
2023/09/18 00:45:21;;;;;;;23.33;19.48;;;17.50;99.90;;;;;;4999316;28;20034;-78
2023/09/18 00:47:48;;;;;;;23.17;19.27;;;17.50;99.90;;;;;;4983382;28;20050;-78
2023/09/18 00:50:14;;;;;;;26.52;19.65;;;17.50;99.90;;;;;;4978197;28;20073;-78
2023/09/18 00:52:41;;;;;;;23.77;19.48;;;17.50;99.90;;;;;;5009974;28;20045;-79
2023/09/18 00:55:07;;;;;;;23.80;19.63;;;17.50;99.90;;;;;;4981512;28;20498;-79
2023/09/18 00:57:33;;;;;;;25.77;19.92;;;17.50;99.90;;;;;;4981037;28;20494;-79
2023/09/18 00:59:59;;;;;;;22.20;18.80;;;17.50;99.90;;;;;;4990674;28;20038;-79
2023/09/18 01:02:26;;;;;;;25.25;19.55;;;17.50;99.90;;;;;;5001780;28;20042;-79
2023/09/18 01:04:52;;;;;;;24.70;19.90;;;17.50;99.90;;;;;;4976617;28;20397;-79
2023/09/18 01:07:18;;;;;;;24.92;19.85;;;17.50;99.90;;;;;;4997637;28;20037;-79
2023/09/18 01:09:43;;;;;;;26.02;19.65;;;17.40;99.90;;;;;;4995374;28;20069;-79
2023/09/18 01:12:46;;;;;;;26.92;20.30;;;17.50;99.90;;;;;;4998887;28;20437;-78
2023/09/18 01:15:14;;;;;;;26.77;21.15;;;17.50;99.90;;;;;;4979561;28;20049;-78
2023/09/18 01:17:41;;;;;;;22.23;19.58;;;17.50;99.90;;;;;;4994759;28;20068;-78
2023/09/18 01:20:10;;;;;;;28.80;20.90;;;17.40;99.90;;;;;;4995878;28;20033;-78
2023/09/18 01:22:36;;;;;;;30.40;21.52;;;17.40;99.90;;;;;;5012659;28;20045;-76
2023/09/18 01:25:02;;;;;;;26.60;21.60;;;17.40;99.90;;;;;;4995423;28;20046;-77
2023/09/18 01:27:28;;;;;;;25.52;21.30;;;17.40;99.90;;;;;;5012697;28;20078;-78
2023/09/18 01:29:57;;;;;;;27.48;22.55;;;17.40;99.90;;;;;;4995266;28;20543;-79
2023/09/18 01:32:26;;;;;;;28.65;24.52;;;17.40;99.90;;;;;;4994178;28;20117;-78
2023/09/18 01:34:55;;;;;;;28.67;24.38;;;17.50;99.90;;;;;;5002829;28;20049;-79
2023/09/18 01:37:25;;;;;;;33.28;25.50;;;17.40;99.90;;;;;;4983818;28;20077;-78
2023/09/18 01:39:53;;;;;;;31.58;25.60;;;17.50;99.90;;;;;;5011445;28;20567;-78
2023/09/18 01:42:19;;;;;;;33.30;26.80;;;17.50;99.90;;;;;;4992303;28;20038;-78
2023/09/18 01:44:46;;;;;;;30.00;25.75;;;17.40;99.90;;;;;;4991011;28;20053;-79
2023/09/18 01:47:18;;;;;;;33.20;25.02;;;17.50;99.90;;;;;;5008861;28;20073;-79
2023/09/18 01:49:44;;;;;;;30.63;24.83;;;17.50;99.90;;;;;;4989666;28;20120;-79
2023/09/18 01:52:10;;;;;;;38.85;26.98;;;17.50;99.90;;;;;;4991747;28;20134;-79
2023/09/18 01:54:36;;;;;;;34.50;27.02;;;17.50;99.90;;;;;;4978003;28;20038;-79
2023/09/18 01:57:02;;;;;;;30.65;25.00;;;17.50;99.90;;;;;;4999178;28;20045;-79
2023/09/18 01:59:28;;;;;;;33.22;27.35;;;17.50;99.90;;;;;;5002277;28;20112;-79
2023/09/18 02:01:57;;;;;;;29.98;25.40;;;17.50;99.90;;;;;;4993779;28;20089;-79
2023/09/18 02:04:23;;;;;;;33.58;27.08;;;17.50;99.90;;;;;;4992872;28;20050;-79
2023/09/18 02:06:50;;;;;;;34.03;26.70;;;17.50;99.90;;;;;;4992882;28;20561;-78
2023/09/18 02:09:16;;;;;;;32.85;26.85;;;17.50;99.90;;;;;;4993988;28;20121;-79
2023/09/18 02:11:45;;;;;;;31.80;26.00;;;17.50;99.90;;;;;;4990014;28;20041;-79
2023/09/18 02:14:11;;;;;;;32.10;26.35;;;17.50;99.90;;;;;;5004394;28;20060;-79
2023/09/18 02:16:42;;;;;;;32.60;25.35;;;17.50;99.90;;;;;;4992476;28;20130;-79
2023/09/18 02:19:12;;;;;;;30.17;25.48;;;17.60;99.90;;;;;;4976357;28;20069;-79
2023/09/18 02:21:38;;;;;;;32.28;25.08;;;17.60;99.90;;;;;;4995136;28;20480;-79
2023/09/18 02:24:04;;;;;;;31.42;24.63;;;17.50;99.90;;;;;;5002170;28;20128;-78
2023/09/18 02:26:29;;;;;;;32.17;25.15;;;17.50;99.90;;;;;;5011499;28;20565;-78
2023/09/18 02:29:00;;;;;;;29.77;25.33;;;17.60;99.90;;;;;;4995351;28;20121;-78
2023/09/18 02:31:25;;;;;;;32.28;24.05;;;17.50;99.90;;;;;;4992240;28;20042;-78
2023/09/18 02:33:51;;;;;;;34.72;26.20;;;17.50;99.90;;;;;;5012580;28;20045;-78
2023/09/18 02:36:17;;;;;;;30.48;25.58;;;17.60;99.90;;;;;;5013703;28;20125;-79
2023/09/18 02:38:43;;;;;;;33.95;25.33;;;17.60;99.90;;;;;;4994529;28;20049;-79
2023/09/18 02:41:09;;;;;;;29.92;23.90;;;17.60;99.90;;;;;;5013295;28;20045;-79
2023/09/18 02:43:34;;;;;;;35.10;24.98;;;17.60;99.90;;;;;;4995130;28;20038;-79
2023/09/18 02:46:00;;;;;;;31.15;25.17;;;17.60;99.90;;;;;;4978050;28;20041;-79
2023/09/18 02:48:26;;;;;;;32.72;24.90;;;17.60;99.90;;;;;;4994660;28;20077;-78
2023/09/18 02:50:51;;;;;;;29.63;24.77;;;17.50;99.90;;;;;;4993458;28;20041;-78
2023/09/18 02:53:23;;;;;;;29.05;25.48;;;17.90;99.90;;;;;;4994132;28;20420;-78
2023/09/18 02:55:52;;;;;;;27.73;23.63;;;17.60;99.90;;;;;;4989450;28;20541;-79
2023/09/18 02:58:19;;;;;;;32.30;26.15;;;17.60;99.90;;;;;;5011266;28;20096;-78
2023/09/18 03:00:50;;;;;;;28.35;23.63;;;17.70;99.90;;;;;;4995440;28;20049;-79
2023/09/18 03:03:16;;;;;;;28.33;22.70;;;17.60;99.90;;;;;;5008272;28;20041;-79
2023/09/18 03:05:43;;;;;;;27.73;23.15;;;17.60;99.90;;;;;;4986764;28;20092;-79
2023/09/18 03:08:09;;;;;;;33.30;25.23;;;17.60;99.90;;;;;;5007072;28;20493;-79
2023/09/18 03:10:35;;;;;;;30.02;23.15;;;17.60;99.90;;;;;;4994358;28;20506;-79
2023/09/18 03:13:02;;;;;;;32.22;22.90;;;17.60;99.90;;;;;;4978295;28;20042;-79
2023/09/18 03:15:28;;;;;;;28.65;22.98;;;17.60;99.90;;;;;;4987561;28;20129;-79
2023/09/18 03:17:54;;;;;;;27.63;21.95;;;17.60;99.90;;;;;;4998628;28;20546;-79
2023/09/18 03:20:23;;;;;;;30.05;24.38;;;17.60;99.90;;;;;;5018573;28;20044;-79
2023/09/18 03:22:50;;;;;;;28.60;23.13;;;17.60;99.90;;;;;;5002909;28;20069;-79
2023/09/18 03:25:15;;;;;;;29.23;22.60;;;17.60;99.90;;;;;;4984096;28;20180;-79
2023/09/18 03:27:41;;;;;;;25.92;21.42;;;17.70;99.90;;;;;;4997510;28;20561;-79
2023/09/18 03:30:07;;;;;;;26.92;21.73;;;17.70;99.90;;;;;;5013098;28;20034;-79
2023/09/18 03:32:33;;;;;;;24.55;20.33;;;17.70;99.90;;;;;;5013562;28;20048;-79
2023/09/18 03:34:58;;;;;;;24.73;21.20;;;17.70;99.90;;;;;;5009065;28;20037;-79
2023/09/18 03:37:24;;;;;;;27.60;21.33;;;17.70;99.90;;;;;;5000225;28;20042;-79
2023/09/18 03:39:49;;;;;;;27.77;21.17;;;17.70;99.90;;;;;;5008940;28;20041;-80
2023/09/18 03:42:15;;;;;;;24.35;20.48;;;17.70;99.90;;;;;;4998771;28;20061;-79
2023/09/18 03:44:41;;;;;;;24.75;20.73;;;17.70;99.90;;;;;;4998627;28;20029;-79
2023/09/18 03:47:06;;;;;;;26.50;20.77;;;17.70;99.90;;;;;;5017770;28;20125;-79
2023/09/18 03:49:32;;;;;;;27.23;20.85;;;17.80;99.90;;;;;;4996506;28;20042;-79
2023/09/18 03:51:57;;;;;;;22.02;18.80;;;17.70;99.90;;;;;;5021278;28;20033;-79
2023/09/18 03:54:23;;;;;;;24.55;19.08;;;17.70;99.90;;;;;;4978065;28;20487;-79
2023/09/18 03:56:48;;;;;;;23.42;19.95;;;17.70;99.90;;;;;;4995705;28;20042;-79
2023/09/18 03:59:14;;;;;;;22.42;18.52;;;17.70;99.90;;;;;;4998107;28;20125;-79
2023/09/18 04:01:39;;;;;;;22.15;17.60;;;17.80;99.90;;;;;;5015047;28;20053;-79
2023/09/18 04:04:05;;;;;;;25.88;19.27;;;17.70;99.90;;;;;;4996259;28;20486;-79
2023/09/18 04:06:43;;;;;;;25.95;18.35;;;17.70;99.90;;;;;;5015486;28;20045;-79
2023/09/18 04:09:08;;;;;;;23.27;17.75;;;17.70;99.90;;;;;;4981945;28;20116;-79
2023/09/18 04:11:35;;;;;;;26.17;18.77;;;17.70;99.90;;;;;;5016549;28;20453;-79
2023/09/18 04:14:01;;;;;;;24.30;18.27;;;17.70;99.90;;;;;;4999187;28;20581;-79
2023/09/18 04:16:37;;;;;;;23.17;18.42;;;17.70;99.90;;;;;;4996603;28;20472;-79
2023/09/18 04:19:03;;;;;;;24.05;17.83;;;17.70;99.90;;;;;;5000673;28;20045;-79
2023/09/18 04:21:31;;;;;;;21.60;17.27;;;17.80;99.90;;;;;;4990823;28;20073;-79
2023/09/18 04:23:58;;;;;;;21.88;16.85;;;17.80;99.90;;;;;;4997450;28;20037;-79
2023/09/18 04:26:29;;;;;;;21.92;16.60;;;17.80;99.90;;;;;;5005224;28;20033;-79
2023/09/18 04:28:55;;;;;;;22.65;16.67;;;17.80;99.90;;;;;;4987744;28;20551;-79
2023/09/18 04:31:21;;;;;;;19.90;16.42;;;17.80;99.90;;;;;;5000477;28;20440;-79
2023/09/18 04:33:46;;;;;;;21.25;15.40;;;17.80;99.90;;;;;;4997411;28;20041;-79
2023/09/18 04:36:12;;;;;;;22.65;15.32;;;17.80;99.90;;;;;;5005523;28;20065;-79
2023/09/18 04:38:37;;;;;;;21.27;16.70;;;17.90;99.90;;;;;;5015892;28;20152;-79
2023/09/18 04:41:03;;;;;;;20.60;15.65;;;17.80;99.90;;;;;;5015848;28;20037;-79
2023/09/18 04:43:29;;;;;;;17.95;15.57;;;17.90;99.90;;;;;;4995614;28;20045;-79
2023/09/18 04:45:55;;;;;;;20.50;15.98;;;17.90;99.90;;;;;;4996402;28;20052;-79
2023/09/18 04:48:21;;;;;;;21.70;15.35;;;17.90;99.90;;;;;;4981023;28;20691;-79
2023/09/18 04:50:48;;;;;;;20.38;15.50;;;17.90;99.90;;;;;;4997225;28;20053;-79
2023/09/18 04:53:14;;;;;;;20.92;15.10;;;17.90;99.90;;;;;;5004309;28;20076;-79
2023/09/18 04:55:39;;;;;;;22.23;16.63;;;17.90;99.90;;;;;;5014166;28;20054;-79
2023/09/18 04:58:06;;;;;;;21.38;14.95;;;17.90;99.90;;;;;;4996774;28;20558;-79
2023/09/18 05:00:33;;;;;;;20.25;15.35;;;17.90;99.90;;;;;;4978038;28;20034;-79
2023/09/18 05:03:03;;;;;;;22.33;15.55;;;17.90;99.90;;;;;;4997510;28;20037;-79
2023/09/18 05:05:29;;;;;;;24.08;15.27;;;17.90;99.90;;;;;;5017806;28;20057;-79
2023/09/18 05:07:55;;;;;;;19.20;15.07;;;17.90;99.90;;;;;;4994629;28;20065;-79
2023/09/18 05:10:20;;;;;;;22.88;14.68;;;17.90;99.90;;;;;;4993410;28;20046;-79
2023/09/18 05:12:46;;;;;;;21.63;15.65;;;17.90;99.90;;;;;;5012697;28;20115;-79
2023/09/18 05:15:15;;;;;;;19.65;14.35;;;17.90;99.90;;;;;;4980034;28;20073;-79
2023/09/18 05:17:47;;;;;;;19.33;13.80;;;17.90;99.90;;;;;;5011847;28;20135;-80
2023/09/18 05:20:15;;;;;;;19.45;14.25;;;17.90;99.90;;;;;;5008868;28;20444;-79
2023/09/18 05:22:42;;;;;;;20.45;13.52;;;17.90;99.90;;;;;;5000965;28;20038;-79
2023/09/18 05:25:09;;;;;;;16.40;13.07;;;17.90;99.90;;;;;;5000995;28;20037;-79
2023/09/18 05:27:44;;;;;;;15.40;13.07;;;17.90;99.90;;;;;;4996152;28;20096;-79
2023/09/18 05:30:10;;;;;;;17.90;13.30;;;17.90;99.90;;;;;;4997388;28;20635;-79
2023/09/18 05:32:36;;;;;;;18.77;13.68;;;17.90;99.90;;;;;;4981722;28;20618;-79
2023/09/18 05:35:06;;;;;;;18.77;13.95;;;17.90;99.90;;;;;;4980657;28;20065;-79
2023/09/18 05:37:32;;;;;;;18.92;13.88;;;17.90;99.90;;;;;;4998069;28;20049;-79
2023/09/18 05:39:57;;;;;;;18.17;13.05;;;17.80;99.90;;;;;;4993294;28;20042;-79
2023/09/18 05:42:23;;;;;;;17.80;13.88;;;17.80;99.90;;;;;;5000184;28;20046;-79
2023/09/18 05:44:48;;;;;;;16.98;12.73;;;17.80;99.90;;;;;;4999566;28;20414;-79
2023/09/18 05:47:14;;;;;;;16.25;12.63;;;17.80;99.90;;;;;;5003812;28;20440;-79
2023/09/18 05:49:40;;;;;;;20.48;12.80;;;17.80;99.90;;;;;;4995720;28;20121;-79
2023/09/18 05:52:05;;;;;;;20.52;13.80;;;18.00;99.90;;;;;;4991954;28;20049;-81
2023/09/18 05:54:31;;;;;;;20.10;13.88;;;17.90;99.90;;;;;;4999191;28;20045;-81
2023/09/18 05:56:56;;;;;;;19.95;13.48;;;17.90;99.90;;;;;;5020627;28;20069;-80
2023/09/18 05:59:22;;;;;;;26.95;14.25;;;17.90;99.90;;;;;;4983298;28;20046;-81
2023/09/18 06:01:49;;;;;;;25.10;13.68;;;17.90;99.90;;;;;;4985799;28;20034;-81
2023/09/18 06:04:14;;;;;;;19.73;13.10;;;17.90;99.90;;;;;;5004427;28;20113;-78
2023/09/18 06:06:40;;;;;;;18.08;12.95;;;17.90;99.90;;;;;;4984780;28;20128;-79
2023/09/18 06:09:06;;;;;;;19.88;12.80;;;17.90;99.90;;;;;;4989498;28;20121;-78
2023/09/18 06:11:32;;;;;;;16.90;12.57;;;18.00;99.90;;;;;;4994403;28;20170;-78
2023/09/18 06:13:57;;;;;;;19.80;13.18;;;18.00;99.90;;;;;;4991291;28;20057;-78
2023/09/18 06:16:23;;;;;;;18.02;13.45;;;18.00;99.90;;;;;;4973054;28;20043;-77
2023/09/18 06:18:48;;;;;;;20.55;13.10;;;18.10;99.90;;;;;;5011315;28;20180;-78
2023/09/18 06:21:14;;;;;;;17.45;13.02;;;18.10;99.90;;;;;;5004456;28;20074;-79
2023/09/18 06:23:39;;;;;;;20.33;13.35;;;18.10;99.90;;;;;;4990245;28;20042;-78
2023/09/18 06:26:05;;;;;;;17.15;12.98;;;18.10;99.90;;;;;;4983742;28;20045;-78
2023/09/18 06:28:31;;;;;;;20.55;13.88;;;18.10;99.90;;;;;;5014270;28;20056;-78
2023/09/18 06:30:56;;;;;;;18.17;13.73;;;18.10;99.90;;;;;;4994733;28;20041;-78
2023/09/18 06:33:23;;;;;;;18.55;13.85;;;18.20;99.90;;;;;;5011026;28;20501;-78
2023/09/18 06:35:48;;;;;;;19.92;14.40;;;18.20;99.90;;;;;;4995941;28;20049;-79
2023/09/18 06:38:15;;;;;;;22.15;14.82;;;18.20;99.90;;;;;;5006464;28;20034;-78
2023/09/18 06:40:41;;;;;;;23.48;16.25;;;18.30;99.90;;;;;;5009285;28;20034;-79
2023/09/18 06:43:06;;;;;;;24.35;17.10;;;18.30;99.90;;;;;;5013496;28;20042;-78
2023/09/18 06:45:33;;;;;;;25.48;16.85;;;18.30;99.90;;;;;;5009237;28;20041;-79
2023/09/18 06:48:00;;;;;;;23.50;16.40;;;18.30;99.90;;;;;;5015445;28;20121;-81
2023/09/18 06:50:26;;;;;;;37.67;19.58;;;18.30;99.90;;;;;;4997515;28;20044;-82
2023/09/18 06:52:51;;;;;;;30.67;18.38;;;18.30;99.90;;;;;;4995409;28;20042;-80
2023/09/18 06:55:17;;;;;;;31.38;19.30;;;18.30;99.90;;;;;;5000334;28;20034;-80
2023/09/18 06:57:43;;;;;;;32.85;20.60;;;18.30;99.90;;;;;;4994578;28;20046;-80
2023/09/18 07:00:09;;;;;;;31.75;20.00;;;18.30;99.90;;;;;;5003894;28;20357;-80
2023/09/18 07:02:34;;;;;;;26.75;19.00;;;18.30;99.90;;;;;;4996601;28;20033;-80
2023/09/18 07:05:00;;;;;;;29.00;19.85;;;18.30;99.90;;;;;;5010236;28;20441;-80
2023/09/18 07:07:26;;;;;;;30.70;21.35;;;18.30;99.90;;;;;;4995067;28;20080;-81
2023/09/18 07:09:52;;;;;;;33.25;21.55;;;18.30;99.90;;;;;;5012304;28;20042;-81
2023/09/18 07:12:20;;;;;;;35.80;21.27;;;18.40;99.90;;;;;;5017101;28;20037;-81
2023/09/18 07:14:46;;;;;;;28.13;19.83;;;18.40;99.90;;;;;;5013165;28;20517;-81
2023/09/18 07:17:12;;;;;;;24.48;17.17;;;18.40;99.90;;;;;;5018378;28;20034;-80
2023/09/18 07:19:38;;;;;;;25.38;17.40;;;18.40;99.90;;;;;;4998483;28;20040;-80
2023/09/18 07:22:04;;;;;;;21.33;17.13;;;18.40;99.90;;;;;;4980559;28;20038;-80
2023/09/18 07:24:30;;;;;;;25.20;17.20;;;18.40;99.90;;;;;;4993816;28;20528;-80
2023/09/18 07:26:57;;;;;;;28.05;17.30;;;18.60;99.90;;;;;;5008829;28;20069;-81
2023/09/18 07:29:25;;;;;;;24.25;17.00;;;18.40;99.90;;;;;;4999800;28;20125;-81
2023/09/18 07:31:51;;;;;;;27.35;17.30;;;18.40;99.90;;;;;;4995623;28;20060;-80
2023/09/18 07:34:17;;;;;;;26.50;17.48;;;18.40;99.90;;;;;;5002555;28;20042;-81
2023/09/18 07:36:44;;;;;;;25.75;17.38;;;18.40;99.90;;;;;;4996637;28;20069;-81
2023/09/18 07:39:11;;;;;;;25.65;17.38;;;18.40;99.90;;;;;;5014208;28;20038;-81
2023/09/18 07:41:37;;;;;;;28.85;17.52;;;18.40;99.90;;;;;;5014183;28;20171;-81
2023/09/18 07:44:03;;;;;;;25.48;17.05;;;18.40;99.90;;;;;;5004411;28;20080;-80
2023/09/18 07:46:29;;;;;;;24.10;16.58;;;18.40;99.90;;;;;;5019404;28;20041;-82
2023/09/18 07:48:55;;;;;;;24.83;16.27;;;18.50;99.90;;;;;;5018075;28;20037;-81
2023/09/18 07:51:20;;;;;;;25.77;16.95;;;18.50;99.90;;;;;;5010085;28;20133;-83
2023/09/18 07:53:46;;;;;;;23.27;16.50;;;18.50;99.90;;;;;;5015475;28;20040;-80
2023/09/18 07:56:12;;;;;;;25.13;16.23;;;18.50;99.90;;;;;;5009009;28;20123;-81
2023/09/18 07:58:38;;;;;;;27.40;16.75;;;18.50;99.90;;;;;;5014024;28;20037;-81
2023/09/18 08:01:10;;;;;;;25.15;16.83;;;18.60;99.90;;;;;;4991752;28;20045;-80
2023/09/18 08:03:35;;;;;;;28.45;17.42;;;18.60;99.90;;;;;;4984614;28;20405;-82
2023/09/18 08:06:01;;;;;;;21.73;16.02;;;18.60;99.90;;;;;;5012848;28;20048;-80
2023/09/18 08:08:26;;;;;;;25.90;16.90;;;18.60;99.90;;;;;;4993141;28;20049;-79
2023/09/18 08:10:53;;;;;;;25.55;16.35;;;18.60;99.90;;;;;;5012570;28;20571;-79
2023/09/18 08:13:24;;;;;;;23.75;16.95;;;18.70;99.90;;;;;;4993757;28;20042;-80
2023/09/18 08:15:50;;;;;;;23.75;15.77;;;18.70;99.90;;;;;;5016708;28;20521;-80
2023/09/18 08:18:16;;;;;;;25.58;16.05;;;18.70;99.90;;;;;;4975777;28;20037;-81
2023/09/18 08:20:45;;;;;;;26.75;16.30;;;18.80;99.90;;;;;;4986586;28;20038;-80
2023/09/18 08:23:12;;;;;;;23.25;15.65;;;18.80;99.90;;;;;;5009873;28;20046;-80
2023/09/18 08:25:39;;;;;;;21.13;14.82;;;18.90;99.90;;;;;;5011851;28;20041;-81
2023/09/18 08:28:06;;;;;;;22.48;15.48;;;18.90;99.90;;;;;;4995396;28;20687;-80
2023/09/18 08:30:32;;;;;;;21.60;16.13;;;18.90;99.90;;;;;;4997153;28;20057;-80
2023/09/18 08:32:57;;;;;;;25.60;16.42;;;18.90;99.90;;;;;;5015814;28;20575;-82
2023/09/18 08:35:25;;;;;;;26.00;15.80;;;19.00;99.90;;;;;;5010208;28;20038;-81
2023/09/18 08:37:50;;;;;;;21.60;16.02;;;19.00;99.90;;;;;;5000468;28;20414;-80
2023/09/18 08:40:16;;;;;;;23.25;16.40;;;19.00;99.90;;;;;;4993792;28;20034;-82
2023/09/18 08:42:46;;;;;;;23.65;16.85;;;19.10;99.90;;;;;;5007757;28;20535;-81
2023/09/18 08:45:22;;;;;;;25.70;15.80;;;19.10;99.90;;;;;;4997142;28;20120;-81
2023/09/18 08:47:48;;;;;;;24.90;16.30;;;19.10;99.90;;;;;;4994532;28;20038;-80
2023/09/18 08:50:15;;;;;;;21.25;16.58;;;19.20;99.90;;;;;;4975556;28;20101;-80
2023/09/18 08:52:41;;;;;;;24.23;16.73;;;19.20;99.90;;;;;;4976175;28;20037;-81
2023/09/18 08:55:08;;;;;;;26.23;16.52;;;19.20;99.90;;;;;;5013541;28;20038;-80
2023/09/18 08:57:36;;;;;;;26.50;16.00;;;19.20;99.90;;;;;;5025534;28;20087;-80
2023/09/18 09:00:06;;;;;;;23.73;16.13;;;19.30;99.90;;;;;;5016950;28;20084;-80
2023/09/18 09:02:33;;;;;;;24.02;16.73;;;19.20;99.90;;;;;;4996027;28;20077;-80
2023/09/18 09:04:59;;;;;;;20.65;16.05;;;19.20;99.90;;;;;;5011363;28;20046;-82
2023/09/18 09:07:25;;;;;;;21.08;15.88;;;19.20;99.90;;;;;;4992762;28;20042;-82
2023/09/18 09:09:51;;;;;;;25.23;16.60;;;19.20;99.90;;;;;;5018421;28;20044;-81
2023/09/18 09:12:46;;;;;;;22.70;15.48;;;19.30;99.90;;;;;;5015156;28;20042;-82
2023/09/18 09:15:11;;;;;;;22.17;15.13;;;19.30;99.90;;;;;;4986954;28;20054;-80
2023/09/18 09:17:37;;;;;;;22.75;16.25;;;19.40;99.90;;;;;;4994871;28;20528;-79
2023/09/18 09:20:10;;;;;;;20.13;14.52;;;19.50;99.90;;;;;;5003374;28;20133;-81
2023/09/18 09:22:37;;;;;;;23.70;15.50;;;19.50;99.90;;;;;;5011803;28;20064;-82
2023/09/18 09:25:02;;;;;;;19.23;14.50;;;19.50;99.90;;;;;;5005392;28;20084;-81
2023/09/18 09:27:28;;;;;;;19.83;14.48;;;19.60;99.90;;;;;;4995534;28;20455;-80
2023/09/18 09:30:00;;;;;;;22.30;14.25;;;19.70;99.90;;;;;;5005663;28;20383;-82
2023/09/18 09:32:31;;;;;;;17.95;14.15;;;19.80;99.90;;;;;;4992028;28;20046;-83
2023/09/18 09:35:00;;;;;;;19.40;13.27;;;19.70;99.90;;;;;;4995995;28;20394;-82
2023/09/18 09:37:32;;;;;;;17.67;13.13;;;19.90;99.90;;;;;;4995811;28;20410;-82
2023/09/18 09:40:09;;;;;;;18.42;12.70;;;19.90;99.90;;;;;;5008546;28;20045;-81
2023/09/18 09:42:40;;;;;;;15.77;12.73;;;20.00;99.90;;;;;;5015906;28;20045;-79
2023/09/18 09:45:11;;;;;;;14.15;12.65;;;20.10;99.90;;;;;;4973484;28;20045;-81
2023/09/18 09:47:38;;;;;;;17.42;12.75;;;20.10;99.90;;;;;;4986246;28;20132;-79
2023/09/18 09:50:18;;;;;;;18.02;12.18;;;20.20;99.90;;;;;;5005438;28;20521;-82
2023/09/18 09:52:48;;;;;;;15.63;11.23;;;20.20;99.90;;;;;;4991776;28;20049;-80
2023/09/18 09:55:25;;;;;;;15.02;11.68;;;20.20;99.90;;;;;;4996907;28;20034;-80
2023/09/18 09:57:57;;;;;;;13.70;11.00;;;20.30;99.90;;;;;;5013823;28;20060;-79
2023/09/18 10:00:29;;;;;;;15.43;10.98;;;20.30;99.90;;;;;;5011201;28;20046;-80
2023/09/18 10:03:01;;;;;;;14.10;10.55;;;20.30;99.90;;;;;;5019087;28;20049;-80
2023/09/18 10:05:29;;;;;;;14.40;10.25;;;20.40;99.90;;;;;;4996967;28;20038;-81
2023/09/18 10:08:00;;;;;;;12.48;9.60;;;20.40;99.90;;;;;;5012939;28;20046;-79
2023/09/18 10:10:31;;;;;;;12.20;10.30;;;20.40;99.90;;;;;;5000096;28;20042;-82
2023/09/18 10:13:04;;;;;;;10.68;9.18;;;20.50;99.90;;;;;;5004983;28;20061;-79
2023/09/18 10:15:33;;;;;;;12.50;9.50;;;20.50;99.90;;;;;;4991162;28;20038;-79
2023/09/18 10:18:02;;;;;;;12.95;9.38;;;20.50;99.90;;;;;;4984310;28;20045;-78
2023/09/18 10:20:29;;;;;;;10.02;8.93;;;20.70;99.90;;;;;;4996009;28;20126;-79
2023/09/18 10:22:58;;;;;;;12.30;9.55;;;20.70;99.90;;;;;;4998466;28;20034;-78
2023/09/18 10:25:28;;;;;;;12.63;8.20;;;20.90;99.90;;;;;;5010491;28;20041;-78
2023/09/18 10:27:58;;;;;;;9.93;8.48;;;21.00;99.90;;;;;;4999487;28;20041;-78
2023/09/18 10:30:25;;;;;;;10.13;7.72;;;21.20;99.90;;;;;;5014384;28;20117;-78
2023/09/18 10:32:51;;;;;;;10.43;7.57;;;21.30;99.90;;;;;;4994398;28;20437;-78
2023/09/18 10:35:17;;;;;;;9.75;7.93;;;21.50;99.90;;;;;;5005533;28;20046;-79
2023/09/18 10:37:43;;;;;;;9.32;6.93;;;21.50;99.90;;;;;;5000854;28;20561;-78
2023/09/18 10:40:09;;;;;;;8.07;7.07;;;21.50;99.90;;;;;;5017065;28;20037;-78
2023/09/18 10:42:38;;;;;;;8.18;6.03;;;21.60;99.90;;;;;;4994644;28;20054;-78
2023/09/18 10:45:04;;;;;;;7.63;6.63;;;21.60;99.90;;;;;;5009880;28;20513;-78
2023/09/18 10:47:31;;;;;;;9.13;6.35;;;21.50;99.90;;;;;;4977725;28;20510;-77
2023/09/18 10:49:57;;;;;;;9.95;5.97;;;21.50;99.90;;;;;;5013568;28;20624;-77
2023/09/18 10:52:22;;;;;;;6.82;5.78;;;21.50;99.90;;;;;;5013375;28;20053;-77
2023/09/18 10:54:48;;;;;;;9.25;5.72;;;21.50;99.90;;;;;;5010066;28;20041;-78
2023/09/18 10:57:14;;;;;;;7.82;5.45;;;21.40;99.90;;;;;;5011287;28;20478;-78
2023/09/18 10:59:46;;;;;;;9.93;5.15;;;21.50;99.90;;;;;;4985432;28;20034;-78
2023/09/18 11:02:17;;;;;;;8.20;5.22;;;21.50;99.90;;;;;;5010538;28;20042;-77
2023/09/18 11:04:43;;;;;;;5.93;5.07;;;21.50;99.90;;;;;;5005857;28;20501;-77
2023/09/18 11:07:18;;;;;;;8.48;4.80;;;21.40;99.90;;;;;;4993832;28;20490;-78
2023/09/18 11:09:45;;;;;;;9.93;4.50;;;21.40;99.90;;;;;;4981892;28;20042;-78
2023/09/18 11:12:13;;;;;;;6.60;4.88;;;21.50;99.90;;;;;;5010826;28;20041;-78
2023/09/18 11:14:49;;;;;;;9.77;4.50;;;21.60;99.90;;;;;;4996280;28;20037;-78
2023/09/18 11:17:35;;;;;;;8.98;4.88;;;21.80;99.90;;;;;;4993883;28;20050;-78
2023/09/18 11:20:17;;;;;;;8.13;4.53;;;21.90;99.90;;;;;;4987073;28;20580;-78
2023/09/18 11:22:48;;;;;;;7.22;4.57;;;21.80;99.90;;;;;;4997828;28;20042;-78
2023/09/18 11:25:43;;;;;;;7.70;3.97;;;21.70;99.90;;;;;;4977129;28;20044;-78
2023/09/18 11:28:15;;;;;;;8.30;4.28;;;21.60;99.90;;;;;;4981660;28;20046;-78
2023/09/18 11:31:03;;;;;;;6.50;4.15;;;21.50;99.90;;;;;;4994650;28;20104;-78
2023/09/18 11:33:37;;;;;;;6.90;3.92;;;21.50;99.90;;;;;;4973743;28;20058;-78
2023/09/18 11:36:11;;;;;;;5.68;4.18;;;21.40;99.90;;;;;;5010985;28;20514;-78
2023/09/18 11:38:55;;;;;;;7.63;4.43;;;21.30;99.90;;;;;;5014523;28;20077;-78
2023/09/18 11:41:25;;;;;;;8.52;4.13;;;21.20;99.90;;;;;;5016367;28;20402;-78
2023/09/18 11:43:51;;;;;;;8.80;4.43;;;21.10;99.90;;;;;;5010866;28;20093;-77
2023/09/18 11:46:20;;;;;;;11.35;5.80;;;21.00;99.90;;;;;;4993897;28;20042;-82
2023/09/18 11:48:52;;;;;;;6.53;4.65;;;20.90;99.90;;;;;;5008072;28;20038;-80
2023/09/18 11:51:22;;;;;;;8.15;5.38;;;20.70;99.90;;;;;;5011417;28;20061;-80
2023/09/18 11:53:51;;;;;;;6.85;5.35;;;20.50;99.90;;;;;;5014488;28;20042;-79
2023/09/18 11:56:18;;;;;;;9.18;5.40;;;20.50;99.90;;;;;;4997399;28;20086;-80
2023/09/18 11:58:46;;;;;;;8.57;5.80;;;20.50;99.90;;;;;;5015015;28;20033;-79
2023/09/18 12:01:13;;;;;;;6.88;5.75;;;20.60;99.90;;;;;;4983728;28;20038;-79
2023/09/18 12:03:38;;;;;;;10.93;5.35;;;20.70;99.90;;;;;;4998456;28;20081;-80
2023/09/18 12:06:05;;;;;;;8.52;5.30;;;20.80;99.90;;;;;;5002182;28;20103;-79
2023/09/18 12:08:31;;;;;;;7.15;5.47;;;20.80;99.90;;;;;;4982451;28;20101;-79
2023/09/18 12:10:58;;;;;;;8.65;5.80;;;21.00;99.90;;;;;;5014424;28;20038;-79
2023/09/18 12:13:27;;;;;;;6.95;4.97;;;21.10;99.90;;;;;;4996022;28;20049;-79
2023/09/18 12:16:06;;;;;;;7.55;4.90;;;21.20;99.90;;;;;;5013698;28;20117;-79
2023/09/18 12:18:36;;;;;;;8.82;5.30;;;21.30;99.90;;;;;;5004494;28;20045;-80
2023/09/18 12:21:05;;;;;;;7.72;5.20;;;21.50;99.90;;;;;;4979708;28;20125;-79
2023/09/18 12:23:38;;;;;;;8.55;5.32;;;21.60;99.90;;;;;;5013128;28;20029;-79
2023/09/18 12:26:06;;;;;;;11.52;5.78;;;21.70;99.90;;;;;;5013981;28;20038;-78
2023/09/18 12:28:33;;;;;;;9.32;6.63;;;21.80;99.90;;;;;;5010722;28;20461;-78
2023/09/18 12:30:59;;;;;;;8.85;6.70;;;21.90;99.90;;;;;;5028199;28;20085;-77
2023/09/18 12:33:25;;;;;;;8.55;6.80;;;21.90;99.90;;;;;;5004966;28;20044;-78